M I D A S
Marine Information and Data Acquisition System
Tripno 1267 of the Zeeleeuw from 2007-05-04 07:37:53 to 2007-05-04 14:16:29
Back to CruiseResearch ActivitiesStationsMapUnderway DataData graphs

EquipmentUnitsComments
TimeDGPSUTC
LatitudeDGPSDM.mWGS84
LongitudeDGPSDM.mWGS84
SpeedMeteo Stationm/sRelative wind speed
DirectionMeteo StationdegRelative wind direction
TemperatureMeteo Stationdeg CelciusAir temperature
PressureMeteo StationPaAtmospheric pressure
HumidityMeteo Station%Relative humidity
Missing or incorrect values are displayed as -999
Metereological data collected by the RV Zeeleeuw from 2007-05-04 06:54:01 to 2007-05-04 14:28:36
Time Latitude Longitude Speed Direction Temperature Pressure Humidity
2007-05-04 06:55 51°13.581 2°56.133 -999 -999 -999 -999 -999
2007-05-04 06:56 51°13.58 2°56.133 -999 -999 -999 -999 -999
2007-05-04 06:57 51°13.582 2°56.125 -999 -999 -999 -999 -999
2007-05-04 06:58 51°13.599 2°56.068 -999 -999 -999 -999 -999
2007-05-04 06:59 51°13.619 2°55.998 -999 -999 -999 -999 -999
2007-05-04 07:00 51°13.634 2°55.956 -999 -999 -999 -999 -999
2007-05-04 07:01 51°13.647 2°55.923 -999 -999 -999 -999 -999
2007-05-04 07:02 51°13.641 2°55.953 -999 -999 -999 -999 -999
2007-05-04 07:03 51°13.635 2°56.002 -999 -999 -999 -999 -999
2007-05-04 07:04 51°13.632 2°56.025 -999 -999 -999 -999 -999
2007-05-04 07:05 51°13.632 2°56.025 -999 -999 -999 -999 -999
2007-05-04 07:06 51°13.633 2°56.025 -999 -999 -999 -999 -999
2007-05-04 07:07 51°13.633 2°56.024 -999 -999 -999 -999 -999
2007-05-04 07:08 51°13.634 2°56.024 -999 -999 -999 -999 -999
2007-05-04 07:09 51°13.634 2°56.025 -999 -999 -999 -999 -999
2007-05-04 07:10 51°13.633 2°56.025 -999 -999 -999 -999 -999
2007-05-04 07:11 51°13.634 2°56.025 -999 -999 -999 -999 -999
2007-05-04 07:12 51°13.633 2°56.024 -999 -999 -999 -999 -999
2007-05-04 07:13 51°13.633 2°56.024 -999 -999 -999 -999 -999
2007-05-04 07:14 51°13.633 2°56.024 -999 -999 -999 -999 -999
2007-05-04 07:15 51°13.633 2°56.024 -999 -999 -999 -999 -999
2007-05-04 07:16 51°13.633 2°56.024 -999 -999 -999 -999 -999
2007-05-04 07:17 51°13.633 2°56.024 -999 -999 -999 -999 -999
2007-05-04 07:18 51°13.633 2°56.024 -999 -999 -999 -999 -999
2007-05-04 07:19 51°13.634 2°56.025 -999 -999 -999 -999 -999
2007-05-04 07:20 51°13.633 2°56.025 -999 -999 -999 -999 -999
2007-05-04 07:21 51°13.634 2°56.026 -999 -999 -999 -999 -999
2007-05-04 07:22 51°13.635 2°56.025 -999 -999 -999 -999 -999
2007-05-04 07:23 51°13.635 2°56.025 -999 -999 -999 -999 -999
2007-05-04 07:24 51°13.635 2°56.025 -999 -999 -999 -999 -999
2007-05-04 07:25 51°13.636 2°56.025 -999 -999 -999 -999 -999
2007-05-04 07:26 51°13.635 2°56.026 -999 -999 -999 -999 -999
2007-05-04 07:27 51°13.635 2°56.026 -999 -999 -999 -999 -999
2007-05-04 07:28 51°13.635 2°56.026 -999 -999 -999 -999 -999
2007-05-04 07:29 51°13.635 2°56.026 -999 -999 -999 -999 -999
2007-05-04 07:30 51°13.635 2°56.026 -999 -999 -999 -999 -999
2007-05-04 07:31 51°13.634 2°56.026 -999 -999 -999 -999 -999
2007-05-04 07:32 51°13.635 2°56.025 -999 -999 -999 -999 -999
2007-05-04 07:33 51°13.634 2°56.025 -999 -999 -999 -999 -999
2007-05-04 07:34 51°13.635 2°56.025 -999 -999 -999 -999 -999
2007-05-04 07:35 51°13.634 2°56.025 -999 -999 -999 -999 -999
2007-05-04 07:36 51°13.634 2°56.025 -999 -999 -999 -999 -999
2007-05-04 07:37 51°13.633 2°56.025 -999 -999 -999 -999 -999
2007-05-04 07:38 51°13.633 2°56.02 -999 -999 -999 -999 -999
2007-05-04 07:39 51°13.644 2°55.977 -999 -999 -999 -999 -999
2007-05-04 07:40 51°13.661 2°55.902 -999 -999 -999 -999 -999
2007-05-04 07:41 51°13.683 2°55.818 -999 -999 -999 -999 -999
2007-05-04 07:42 51°13.701 2°55.77 -999 -999 -999 -999 -999
2007-05-04 07:43 51°13.713 2°55.723 -999 -999 -999 -999 -999
2007-05-04 07:44 51°13.717 2°55.757 -999 -999 -999 -999 -999
2007-05-04 07:45 51°13.705 2°55.738 -999 -999 -999 -999 -999
2007-05-04 07:46 51°13.713 2°55.751 -999 -999 -999 -999 -999
2007-05-04 07:47 51°13.697 2°55.744 -999 -999 -999 -999 -999
2007-05-04 07:48 51°13.687 2°55.74 -999 -999 -999 -999 -999
2007-05-04 07:49 51°13.708 2°55.729 -999 -999 -999 -999 -999
2007-05-04 07:50 51°13.769 2°55.678 -999 -999 -999 -999 -999
2007-05-04 07:51 51°13.865 2°55.609 -999 -999 -999 -999 -999
2007-05-04 07:52 51°13.992 2°55.519 -999 -999 -999 -999 -999
2007-05-04 07:53 51°14.134 2°55.421 -999 -999 -999 -999 -999
2007-05-04 07:54 51°14.267 2°55.267 -999 -999 -999 -999 -999
2007-05-04 07:55 51°14.367 2°55.024 -999 -999 -999 -999 -999
2007-05-04 07:56 51°14.459 2°54.717 -999 -999 -999 -999 -999
2007-05-04 07:57 51°14.485 2°54.361 -999 -999 -999 -999 -999
2007-05-04 07:58 51°14.38 2°54.026 -999 -999 -999 -999 -999
2007-05-04 07:59 51°14.269 2°53.688 -999 -999 -999 -999 -999
2007-05-04 08:00 51°14.144 2°53.356 -999 -999 -999 -999 -999
2007-05-04 08:01 51°14.007 2°53.03 -999 -999 -999 -999 -999
2007-05-04 08:02 51°13.872 2°52.699 -999 -999 -999 -999 -999
2007-05-04 08:03 51°13.744 2°52.361 -999 -999 -999 -999 -999
2007-05-04 08:04 51°13.609 2°52.032 -999 -999 -999 -999 -999
2007-05-04 08:05 51°13.479 2°51.694 -999 -999 -999 -999 -999
2007-05-04 08:06 51°13.349 2°51.356 -999 -999 -999 -999 -999
2007-05-04 08:07 51°13.221 2°51.01 -999 -999 -999 -999 -999
2007-05-04 08:08 51°13.092 2°50.661 -999 -999 -999 -999 -999
2007-05-04 08:09 51°12.965 2°50.311 -999 -999 -999 -999 -999
2007-05-04 08:10 51°12.84 2°49.96 -999 -999 -999 -999 -999
2007-05-04 08:11 51°12.715 2°49.607 -999 -999 -999 -999 -999
2007-05-04 08:12 51°12.589 2°49.259 -999 -999 -999 -999 -999
2007-05-04 08:13 51°12.461 2°48.919 -999 -999 -999 -999 -999
2007-05-04 08:14 51°12.345 2°48.576 -999 -999 -999 -999 -999
2007-05-04 08:15 51°12.234 2°48.22 -999 -999 -999 -999 -999
2007-05-04 08:16 51°12.124 2°47.862 -999 -999 -999 -999 -999
2007-05-04 08:17 51°12.016 2°47.504 -999 -999 -999 -999 -999
2007-05-04 08:18 51°11.943 2°47.128 -999 -999 -999 -999 -999
2007-05-04 08:19 51°11.882 2°46.745 -999 -999 -999 -999 -999
2007-05-04 08:20 51°11.825 2°46.359 -999 -999 -999 -999 -999
2007-05-04 08:21 51°11.789 2°45.968 -999 -999 -999 -999 -999
2007-05-04 08:22 51°11.753 2°45.579 -999 -999 -999 -999 -999
2007-05-04 08:23 51°11.715 2°45.194 -999 -999 -999 -999 -999
2007-05-04 08:24 51°11.679 2°44.814 -999 -999 -999 -999 -999
2007-05-04 08:25 51°11.642 2°44.441 -999 -999 -999 -999 -999
2007-05-04 08:26 51°11.61 2°44.07 -999 -999 -999 -999 -999
2007-05-04 08:27 51°11.576 2°43.697 -999 -999 -999 -999 -999
2007-05-04 08:28 51°11.545 2°43.326 -999 -999 -999 -999 -999
2007-05-04 08:29 51°11.5 2°42.957 -999 -999 -999 -999 -999
2007-05-04 08:30 51°11.455 2°42.585 -999 -999 -999 -999 -999
2007-05-04 08:31 51°11.404 2°42.212 -999 -999 -999 -999 -999
2007-05-04 08:32 51°11.357 2°41.834 -999 -999 -999 -999 -999
2007-05-04 08:33 51°11.305 2°41.505 -999 -999 -999 -999 -999
2007-05-04 08:34 51°11.21 2°41.436 -999 -999 -999 -999 -999
2007-05-04 08:35 51°11.163 2°41.513 -999 -999 -999 -999 -999
2007-05-04 08:36 51°11.124 2°41.656 -999 -999 -999 -999 -999
2007-05-04 08:37 51°11.099 2°41.823 -999 -999 -999 -999 -999
2007-05-04 08:38 51°11.088 2°41.957 -999 -999 -999 -999 -999
2007-05-04 08:39 51°11.085 2°42.021 -999 -999 -999 -999 -999
2007-05-04 08:40 51°11.098 2°42.054 -999 -999 -999 -999 -999
2007-05-04 08:41 51°11.086 2°42.054 -999 -999 -999 -999 -999
2007-05-04 08:42 51°11.065 2°42.036 -999 -999 -999 -999 -999
2007-05-04 08:43 51°11.041 2°42.002 -999 -999 -999 -999 -999
2007-05-04 08:44 51°11.019 2°41.963 -999 -999 -999 -999 -999
2007-05-04 08:45 51°10.999 2°41.925 -999 -999 -999 -999 -999
2007-05-04 08:46 51°10.978 2°41.889 -999 -999 -999 -999 -999
2007-05-04 08:47 51°10.952 2°41.883 -999 -999 -999 -999 -999
2007-05-04 08:48 51°10.96 2°41.927 -999 -999 -999 -999 -999
2007-05-04 08:49 51°11.018 2°41.972 -999 -999 -999 -999 -999
2007-05-04 08:50 51°11.084 2°42.039 -999 -999 -999 -999 -999
2007-05-04 08:51 51°11.106 2°42.065 -999 -999 -999 -999 -999
2007-05-04 08:52 51°11.096 2°42.059 -999 -999 -999 -999 -999
2007-05-04 08:53 51°11.091 2°42.06 -999 -999 -999 -999 -999
2007-05-04 08:54 51°11.128 2°41.99 -999 -999 -999 -999 -999
2007-05-04 08:55 51°11.107 2°41.708 -999 -999 -999 -999 -999
2007-05-04 08:56 51°11.03 2°41.347 -999 -999 -999 -999 -999
2007-05-04 08:57 51°10.949 2°40.977 -999 -999 -999 -999 -999
2007-05-04 08:58 51°10.881 2°40.6 -999 -999 -999 -999 -999
2007-05-04 08:59 51°10.814 2°40.225 -999 -999 -999 -999 -999
2007-05-04 09:00 51°10.753 2°39.843 -999 -999 -999 -999 -999
2007-05-04 09:01 51°10.71 2°39.458 -999 -999 -999 -999 -999
2007-05-04 09:02 51°10.657 2°39.074 -999 -999 -999 -999 -999
2007-05-04 09:03 51°10.596 2°38.689 -999 -999 -999 -999 -999
2007-05-04 09:04 51°10.539 2°38.303 -999 -999 -999 -999 -999
2007-05-04 09:05 51°10.481 2°37.924 -999 -999 -999 -999 -999
2007-05-04 09:06 51°10.426 2°37.556 -999 -999 -999 -999 -999
2007-05-04 09:07 51°10.373 2°37.187 -999 -999 -999 -999 -999
2007-05-04 09:08 51°10.327 2°36.818 -999 -999 -999 -999 -999
2007-05-04 09:09 51°10.404 2°36.501 -999 -999 -999 -999 -999
2007-05-04 09:10 51°10.579 2°36.398 -999 -999 -999 -999 -999
2007-05-04 09:11 51°10.768 2°36.469 -999 -999 -999 -999 -999
2007-05-04 09:12 51°10.959 2°36.53 -999 -999 -999 -999 -999
2007-05-04 09:13 51°11.148 2°36.581 -999 -999 -999 -999 -999
2007-05-04 09:14 51°11.33 2°36.651 -999 -999 -999 -999 -999
2007-05-04 09:15 51°11.514 2°36.739 -999 -999 -999 -999 -999
2007-05-04 09:16 51°11.699 2°36.828 -999 -999 -999 -999 -999
2007-05-04 09:17 51°11.883 2°36.91 -999 -999 -999 -999 -999
2007-05-04 09:18 51°12.063 2°36.993 -999 -999 -999 -999 -999
2007-05-04 09:19 51°12.243 2°37.071 -999 -999 -999 -999 -999
2007-05-04 09:20 51°12.426 2°37.149 -999 -999 -999 -999 -999
2007-05-04 09:21 51°12.611 2°37.228 -999 -999 -999 -999 -999
2007-05-04 09:22 51°12.798 2°37.305 -999 -999 -999 -999 -999
2007-05-04 09:23 51°12.984 2°37.385 -999 -999 -999 -999 -999
2007-05-04 09:24 51°13.174 2°37.45 -999 -999 -999 -999 -999
2007-05-04 09:25 51°13.37 2°37.47 -999 -999 -999 -999 -999
2007-05-04 09:26 51°13.567 2°37.447 -999 -999 -999 -999 -999
2007-05-04 09:27 51°13.77 2°37.357 -999 -999 -999 -999 -999
2007-05-04 09:28 51°13.963 2°37.225 -999 -999 -999 -999 -999
2007-05-04 09:29 51°14.15 2°37.084 -999 -999 -999 -999 -999
2007-05-04 09:30 51°14.338 2°36.953 -999 -999 -999 -999 -999
2007-05-04 09:31 51°14.527 2°36.835 -999 -999 -999 -999 -999
2007-05-04 09:32 51°14.716 2°36.732 -999 -999 -999 -999 -999
2007-05-04 09:33 51°14.914 2°36.631 -999 -999 -999 -999 -999
2007-05-04 09:34 51°15.103 2°36.53 -999 -999 -999 -999 -999
2007-05-04 09:35 51°15.29 2°36.428 -999 -999 -999 -999 -999
2007-05-04 09:36 51°15.482 2°36.333 -999 -999 -999 -999 -999
2007-05-04 09:37 51°15.676 2°36.296 -999 -999 -999 -999 -999
2007-05-04 09:38 51°15.869 2°36.308 -999 -999 -999 -999 -999
2007-05-04 09:39 51°16.053 2°36.356 -999 -999 -999 -999 -999
2007-05-04 09:40 51°16.221 2°36.47 -999 -999 -999 -999 -999
2007-05-04 09:41 51°16.377 2°36.594 -999 -999 -999 -999 -999
2007-05-04 09:42 51°16.479 2°36.677 -999 -999 -999 -999 -999
2007-05-04 09:43 51°16.533 2°36.74 -999 -999 -999 -999 -999
2007-05-04 09:44 51°16.56 2°36.74 -999 -999 -999 -999 -999
2007-05-04 09:45 51°16.579 2°36.77 -999 -999 -999 -999 -999
2007-05-04 09:46 51°16.602 2°36.776 -999 -999 -999 -999 -999
2007-05-04 09:47 51°16.579 2°36.77 -999 -999 -999 -999 -999
2007-05-04 09:48 51°16.547 2°36.745 -999 -999 -999 -999 -999
2007-05-04 09:49 51°16.513 2°36.711 -999 -999 -999 -999 -999
2007-05-04 09:50 51°16.481 2°36.673 -999 -999 -999 -999 -999
2007-05-04 09:51 51°16.448 2°36.634 -999 -999 -999 -999 -999
2007-05-04 09:52 51°16.418 2°36.643 -999 -999 -999 -999 -999
2007-05-04 09:53 51°16.455 2°36.692 -999 -999 -999 -999 -999
2007-05-04 09:54 51°16.572 2°36.816 -999 -999 -999 -999 -999
2007-05-04 09:55 51°16.711 2°36.962 -999 -999 -999 -999 -999
2007-05-04 09:56 51°16.859 2°37.12 -999 -999 -999 -999 -999
2007-05-04 09:57 51°17.01 2°37.281 -999 -999 -999 -999 -999
2007-05-04 09:58 51°17.157 2°37.44 -999 -999 -999 -999 -999
2007-05-04 09:59 51°17.309 2°37.584 -999 -999 -999 -999 -999
2007-05-04 10:00 51°17.463 2°37.733 -999 -999 -999 -999 -999
2007-05-04 10:01 51°17.616 2°37.878 -999 -999 -999 -999 -999
2007-05-04 10:02 51°17.771 2°38.028 -999 -999 -999 -999 -999
2007-05-04 10:03 51°17.927 2°38.182 -999 -999 -999 -999 -999
2007-05-04 10:04 51°18.081 2°38.336 -999 -999 -999 -999 -999
2007-05-04 10:05 51°18.235 2°38.493 -999 -999 -999 -999 -999
2007-05-04 10:06 51°18.39 2°38.646 -999 -999 -999 -999 -999
2007-05-04 10:07 51°18.545 2°38.801 -999 -999 -999 -999 -999
2007-05-04 10:08 51°18.699 2°38.953 -999 -999 -999 -999 -999
2007-05-04 10:09 51°18.847 2°39.102 -999 -999 -999 -999 -999
2007-05-04 10:10 51°19.001 2°39.254 -999 -999 -999 -999 -999
2007-05-04 10:11 51°19.156 2°39.406 -999 -999 -999 -999 -999
2007-05-04 10:12 51°19.316 2°39.558 -999 -999 -999 -999 -999
2007-05-04 10:13 51°19.457 2°39.705 -999 -999 -999 -999 -999
2007-05-04 10:14 51°19.611 2°39.858 -999 -999 -999 -999 -999
2007-05-04 10:15 51°19.778 2°39.978 -999 -999 -999 -999 -999
2007-05-04 10:16 51°19.962 2°40.037 -999 -999 -999 -999 -999
2007-05-04 10:17 51°20.129 2°40.096 -999 -999 -999 -999 -999
2007-05-04 10:18 51°20.308 2°40.159 -999 -999 -999 -999 -999
2007-05-04 10:19 51°20.486 2°40.199 -999 -999 -999 -999 -999
2007-05-04 10:20 51°20.669 2°40.213 -999 -999 -999 -999 -999
2007-05-04 10:21 51°20.849 2°40.225 -999 -999 -999 -999 -999
2007-05-04 10:22 51°21.034 2°40.239 -999 -999 -999 -999 -999
2007-05-04 10:23 51°21.214 2°40.251 -999 -999 -999 -999 -999
2007-05-04 10:24 51°21.397 2°40.278 -999 -999 -999 -999 -999
2007-05-04 10:25 51°21.566 2°40.33 -999 -999 -999 -999 -999
2007-05-04 10:26 51°21.711 2°40.158 -999 -999 -999 -999 -999
2007-05-04 10:27 51°21.856 2°39.954 -999 -999 -999 -999 -999
2007-05-04 10:28 51°22.005 2°39.759 -999 -999 -999 -999 -999
2007-05-04 10:29 51°22.179 2°39.654 -999 -999 -999 -999 -999
2007-05-04 10:30 51°22.362 2°39.725 -999 -999 -999 -999 -999
2007-05-04 10:31 51°22.533 2°39.819 -999 -999 -999 -999 -999
2007-05-04 10:32 51°22.706 2°39.913 -999 -999 -999 -999 -999
2007-05-04 10:33 51°22.882 2°40 -999 -999 -999 -999 -999
2007-05-04 10:34 51°23.034 2°40.149 -999 -999 -999 -999 -999
2007-05-04 10:35 51°23.158 2°40.367 -999 -999 -999 -999 -999
2007-05-04 10:36 51°23.256 2°40.612 -999 -999 -999 -999 -999
2007-05-04 10:37 51°23.356 2°40.857 -999 -999 -999 -999 -999
2007-05-04 10:38 51°23.451 2°41.107 -999 -999 -999 -999 -999
2007-05-04 10:39 51°23.542 2°41.353 -999 -999 -999 -999 -999
2007-05-04 10:40 51°23.639 2°41.605 -999 -999 -999 -999 -999
2007-05-04 10:41 51°23.739 2°41.862 -999 -999 -999 -999 -999
2007-05-04 10:42 51°23.836 2°42.116 -999 -999 -999 -999 -999
2007-05-04 10:43 51°23.932 2°42.363 -999 -999 -999 -999 -999
2007-05-04 10:44 51°24.029 2°42.612 -999 -999 -999 -999 -999
2007-05-04 10:45 51°24.127 2°42.855 -999 -999 -999 -999 -999
2007-05-04 10:46 51°24.209 2°43.113 -999 -999 -999 -999 -999
2007-05-04 10:47 51°24.291 2°43.375 -999 -999 -999 -999 -999
2007-05-04 10:48 51°24.375 2°43.645 -999 -999 -999 -999 -999
2007-05-04 10:49 51°24.46 2°43.91 -999 -999 -999 -999 -999
2007-05-04 10:50 51°24.545 2°44.177 -999 -999 -999 -999 -999
2007-05-04 10:51 51°24.626 2°44.44 -999 -999 -999 -999 -999
2007-05-04 10:52 51°24.708 2°44.709 -999 -999 -999 -999 -999
2007-05-04 10:53 51°24.789 2°44.98 -999 -999 -999 -999 -999
2007-05-04 10:54 51°24.873 2°45.253 -999 -999 -999 -999 -999
2007-05-04 10:55 51°24.95 2°45.522 -999 -999 -999 -999 -999
2007-05-04 10:56 51°25.031 2°45.792 -999 -999 -999 -999 -999
2007-05-04 10:57 51°25.114 2°46.062 -999 -999 -999 -999 -999
2007-05-04 10:58 51°25.198 2°46.343 -999 -999 -999 -999 -999
2007-05-04 10:59 51°25.276 2°46.613 -999 -999 -999 -999 -999
2007-05-04 11:00 51°25.36 2°46.887 -999 -999 -999 -999 -999
2007-05-04 11:01 51°25.443 2°47.163 -999 -999 -999 -999 -999
2007-05-04 11:02 51°25.527 2°47.437 -999 -999 -999 -999 -999
2007-05-04 11:03 51°25.607 2°47.716 -999 -999 -999 -999 -999
2007-05-04 11:04 51°25.69 2°47.984 -999 -999 -999 -999 -999
2007-05-04 11:05 51°25.784 2°48.16 -999 -999 -999 -999 -999
2007-05-04 11:06 51°25.872 2°48.275 -999 -999 -999 -999 -999
2007-05-04 11:07 51°25.935 2°48.381 -999 -999 -999 -999 -999
2007-05-04 11:08 51°25.976 2°48.463 -999 -999 -999 -999 -999
2007-05-04 11:09 51°25.994 2°48.484 -999 -999 -999 -999 -999
2007-05-04 11:10 51°25.982 2°48.489 -999 -999 -999 -999 -999
2007-05-04 11:11 51°25.953 2°48.473 -999 -999 -999 -999 -999
2007-05-04 11:12 51°25.916 2°48.501 -999 -999 -999 -999 -999
2007-05-04 11:13 51°25.854 2°48.766 -999 -999 -999 -999 -999
2007-05-04 11:14 51°25.801 2°49.098 -999 -999 -999 -999 -999
2007-05-04 11:15 51°25.748 2°49.424 -999 -999 -999 -999 -999
2007-05-04 11:16 51°25.692 2°49.753 -999 -999 -999 -999 -999
2007-05-04 11:17 51°25.636 2°50.086 -999 -999 -999 -999 -999
2007-05-04 11:18 51°25.579 2°50.414 -999 -999 -999 -999 -999
2007-05-04 11:19 51°25.521 2°50.743 -999 -999 -999 -999 -999
2007-05-04 11:20 51°25.466 2°51.072 -999 -999 -999 -999 -999
2007-05-04 11:21 51°25.407 2°51.404 -999 -999 -999 -999 -999
2007-05-04 11:22 51°25.347 2°51.735 -999 -999 -999 -999 -999
2007-05-04 11:23 51°25.284 2°52.063 -999 -999 -999 -999 -999
2007-05-04 11:24 51°25.226 2°52.393 -999 -999 -999 -999 -999
2007-05-04 11:25 51°25.176 2°52.728 -999 -999 -999 -999 -999
2007-05-04 11:26 51°25.145 2°53.065 -999 -999 -999 -999 -999
2007-05-04 11:27 51°25.115 2°53.405 -999 -999 -999 -999 -999
2007-05-04 11:28 51°25.084 2°53.748 -999 -999 -999 -999 -999
2007-05-04 11:29 51°25.051 2°54.087 -999 -999 -999 -999 -999
2007-05-04 11:30 51°25.019 2°54.434 -999 -999 -999 -999 -999
2007-05-04 11:31 51°24.985 2°54.77 -999 -999 -999 -999 -999
2007-05-04 11:32 51°24.951 2°55.111 -999 -999 -999 -999 -999
2007-05-04 11:33 51°24.922 2°55.453 -999 -999 -999 -999 -999
2007-05-04 11:34 51°24.894 2°55.799 -999 -999 -999 -999 -999
2007-05-04 11:35 51°24.865 2°56.144 -999 -999 -999 -999 -999
2007-05-04 11:36 51°24.836 2°56.488 -999 -999 -999 -999 -999
2007-05-04 11:37 51°24.802 2°56.83 -999 -999 -999 -999 -999
2007-05-04 11:38 51°24.78 2°57.172 -999 -999 -999 -999 -999
2007-05-04 11:39 51°24.759 2°57.515 -999 -999 -999 -999 -999
2007-05-04 11:40 51°24.74 2°57.863 -999 -999 -999 -999 -999
2007-05-04 11:41 51°24.718 2°58.213 -999 -999 -999 -999 -999
2007-05-04 11:42 51°24.696 2°58.562 -999 -999 -999 -999 -999
2007-05-04 11:43 51°24.672 2°58.909 -999 -999 -999 -999 -999
2007-05-04 11:44 51°24.663 2°59.255 -999 -999 -999 -999 -999
2007-05-04 11:45 51°24.654 2°59.602 -999 -999 -999 -999 -999
2007-05-04 11:46 51°24.649 2°59.96 -999 -999 -999 -999 -999
2007-05-04 11:47 51°24.641 3°0.311 -999 -999 -999 -999 -999
2007-05-04 11:48 51°24.623 3°0.669 -999 -999 -999 -999 -999
2007-05-04 11:49 51°24.611 3°1.026 -999 -999 -999 -999 -999
2007-05-04 11:50 51°24.597 3°1.385 -999 -999 -999 -999 -999
2007-05-04 11:51 51°24.583 3°1.744 -999 -999 -999 -999 -999
2007-05-04 11:52 51°24.564 3°2.106 -999 -999 -999 -999 -999
2007-05-04 11:53 51°24.538 3°2.474 -999 -999 -999 -999 -999
2007-05-04 11:54 51°24.502 3°2.828 -999 -999 -999 -999 -999
2007-05-04 11:55 51°24.463 3°3.191 -999 -999 -999 -999 -999
2007-05-04 11:56 51°24.406 3°3.548 -999 -999 -999 -999 -999
2007-05-04 11:57 51°24.332 3°3.904 -999 -999 -999 -999 -999
2007-05-04 11:58 51°24.25 3°4.26 -999 -999 -999 -999 -999
2007-05-04 11:59 51°24.134 3°4.585 -999 -999 -999 -999 -999
2007-05-04 12:00 51°24.05 3°4.943 -999 -999 -999 -999 -999
2007-05-04 12:01 51°23.977 3°5.3 -999 -999 -999 -999 -999
2007-05-04 12:02 51°23.903 3°5.66 -999 -999 -999 -999 -999
2007-05-04 12:03 51°23.826 3°6.021 -999 -999 -999 -999 -999
2007-05-04 12:04 51°23.75 3°6.381 -999 -999 -999 -999 -999
2007-05-04 12:05 51°23.679 3°6.744 -999 -999 -999 -999 -999
2007-05-04 12:06 51°23.606 3°7.107 -999 -999 -999 -999 -999
2007-05-04 12:07 51°23.533 3°7.472 -999 -999 -999 -999 -999
2007-05-04 12:08 51°23.462 3°7.841 -999 -999 -999 -999 -999
2007-05-04 12:09 51°23.395 3°8.216 -999 -999 -999 -999 -999
2007-05-04 12:10 51°23.325 3°8.576 -999 -999 -999 -999 -999
2007-05-04 12:11 51°23.256 3°8.949 -999 -999 -999 -999 -999
2007-05-04 12:12 51°23.188 3°9.306 -999 -999 -999 -999 -999
2007-05-04 12:13 51°23.119 3°9.675 -999 -999 -999 -999 -999
2007-05-04 12:14 51°23.052 3°10.036 -999 -999 -999 -999 -999
2007-05-04 12:15 51°22.985 3°10.408 -999 -999 -999 -999 -999
2007-05-04 12:16 51°22.916 3°10.785 -999 -999 -999 -999 -999
2007-05-04 12:17 51°22.848 3°11.151 -999 -999 -999 -999 -999
2007-05-04 12:18 51°22.785 3°11.53 -999 -999 -999 -999 -999
2007-05-04 12:19 51°22.718 3°11.868 -999 -999 -999 -999 -999
2007-05-04 12:20 51°22.651 3°12.194 -999 -999 -999 -999 -999
2007-05-04 12:21 51°22.585 3°12.511 -999 -999 -999 -999 -999
2007-05-04 12:22 51°22.517 3°12.823 -999 -999 -999 -999 -999
2007-05-04 12:23 51°22.51 3°13.057 -999 -999 -999 -999 -999
2007-05-04 12:24 51°22.526 3°13.221 -999 -999 -999 -999 -999
2007-05-04 12:25 51°22.531 3°13.319 -999 -999 -999 -999 -999
2007-05-04 12:26 51°22.515 3°13.376 -999 -999 -999 -999 -999
2007-05-04 12:27 51°22.499 3°13.428 -999 -999 -999 -999 -999
2007-05-04 12:28 51°22.482 3°13.476 -999 -999 -999 -999 -999
2007-05-04 12:29 51°22.466 3°13.526 -999 -999 -999 -999 -999
2007-05-04 12:30 51°22.449 3°13.574 -999 -999 -999 -999 -999
2007-05-04 12:31 51°22.431 3°13.625 -999 -999 -999 -999 -999
2007-05-04 12:32 51°22.415 3°13.676 -999 -999 -999 -999 -999
2007-05-04 12:33 51°22.397 3°13.73 -999 -999 -999 -999 -999
2007-05-04 12:34 51°22.38 3°13.786 -999 -999 -999 -999 -999
2007-05-04 12:35 51°22.361 3°13.845 -999 -999 -999 -999 -999
2007-05-04 12:36 51°22.341 3°13.907 -999 -999 -999 -999 -999
2007-05-04 12:37 51°22.323 3°13.969 -999 -999 -999 -999 -999
2007-05-04 12:38 51°22.305 3°14.031 -999 -999 -999 -999 -999
2007-05-04 12:39 51°22.285 3°14.092 -999 -999 -999 -999 -999
2007-05-04 12:40 51°22.264 3°14.167 -999 -999 -999 -999 -999
2007-05-04 12:41 51°22.273 3°14.295 -999 -999 -999 -999 -999
2007-05-04 12:42 51°22.321 3°14.367 -999 -999 -999 -999 -999
2007-05-04 12:43 51°22.345 3°14.344 -999 -999 -999 -999 -999
2007-05-04 12:44 51°22.359 3°14.269 -999 -999 -999 -999 -999
2007-05-04 12:45 51°22.389 3°14.182 -999 -999 -999 -999 -999
2007-05-04 12:46 51°22.413 3°14.091 -999 -999 -999 -999 -999
2007-05-04 12:47 51°22.471 3°14.036 -999 -999 -999 -999 -999
2007-05-04 12:48 51°22.451 3°13.955 -999 -999 -999 -999 -999
2007-05-04 12:49 51°22.452 3°13.855 -999 -999 -999 -999 -999
2007-05-04 12:50 51°22.456 3°13.751 -999 -999 -999 -999 -999
2007-05-04 12:51 51°22.472 3°13.659 -999 -999 -999 -999 -999
2007-05-04 12:52 51°22.485 3°13.595 -999 -999 -999 -999 -999
2007-05-04 12:53 51°22.5 3°13.536 -999 -999 -999 -999 -999
2007-05-04 12:54 51°22.523 3°13.406 -999 -999 -999 -999 -999
2007-05-04 12:55 51°22.537 3°13.302 -999 -999 -999 -999 -999
2007-05-04 12:56 51°22.534 3°13.205 -999 -999 -999 -999 -999
2007-05-04 12:57 51°22.518 3°13.108 -999 -999 -999 -999 -999
2007-05-04 12:58 51°22.499 3°12.959 -999 -999 -999 -999 -999
2007-05-04 12:59 51°22.472 3°12.69 -999 -999 -999 -999 -999
2007-05-04 13:00 51°22.449 3°12.413 -999 -999 -999 -999 -999
2007-05-04 13:01 51°22.428 3°12.135 -999 -999 -999 -999 -999
2007-05-04 13:02 51°22.383 3°11.867 -999 -999 -999 -999 -999
2007-05-04 13:03 51°22.307 3°11.609 -999 -999 -999 -999 -999
2007-05-04 13:04 51°22.235 3°11.355 -999 -999 -999 -999 -999
2007-05-04 13:05 51°22.171 3°11.1 -999 -999 -999 -999 -999
2007-05-04 13:06 51°22.108 3°10.837 -999 -999 -999 -999 -999
2007-05-04 13:07 51°22.055 3°10.567 -999 -999 -999 -999 -999
2007-05-04 13:08 51°21.996 3°10.297 -999 -999 -999 -999 -999
2007-05-04 13:09 51°21.938 3°10.026 -999 -999 -999 -999 -999
2007-05-04 13:10 51°21.885 3°9.756 -999 -999 -999 -999 -999
2007-05-04 13:11 51°21.823 3°9.487 -999 -999 -999 -999 -999
2007-05-04 13:12 51°21.761 3°9.217 -999 -999 -999 -999 -999
2007-05-04 13:13 51°21.696 3°8.945 -999 -999 -999 -999 -999
2007-05-04 13:14 51°21.632 3°8.672 -999 -999 -999 -999 -999
2007-05-04 13:15 51°21.57 3°8.397 -999 -999 -999 -999 -999
2007-05-04 13:16 51°21.511 3°8.118 -999 -999 -999 -999 -999
2007-05-04 13:17 51°21.445 3°7.84 -999 -999 -999 -999 -999
2007-05-04 13:18 51°21.38 3°7.566 -999 -999 -999 -999 -999
2007-05-04 13:19 51°21.306 3°7.297 -999 -999 -999 -999 -999
2007-05-04 13:20 51°21.214 3°7.04 -999 -999 -999 -999 -999
2007-05-04 13:21 51°21.084 3°6.825 -999 -999 -999 -999 -999
2007-05-04 13:22 51°20.946 3°6.621 -999 -999 -999 -999 -999
2007-05-04 13:23 51°20.792 3°6.448 -999 -999 -999 -999 -999
2007-05-04 13:24 51°20.619 3°6.315 -999 -999 -999 -999 -999
2007-05-04 13:25 51°20.447 3°6.179 -999 -999 -999 -999 -999
2007-05-04 13:26 51°20.278 3°6.038 -999 -999 -999 -999 -999
2007-05-04 13:27 51°20.111 3°5.884 -999 -999 -999 -999 -999
2007-05-04 13:28 51°19.954 3°5.713 -999 -999 -999 -999 -999
2007-05-04 13:29 51°19.829 3°5.487 -999 -999 -999 -999 -999
2007-05-04 13:30 51°19.722 3°5.238 -999 -999 -999 -999 -999
2007-05-04 13:31 51°19.609 3°5.001 -999 -999 -999 -999 -999
2007-05-04 13:32 51°19.494 3°4.751 -999 -999 -999 -999 -999
2007-05-04 13:33 51°19.386 3°4.503 -999 -999 -999 -999 -999
2007-05-04 13:34 51°19.274 3°4.26 -999 -999 -999 -999 -999
2007-05-04 13:35 51°19.161 3°4.014 -999 -999 -999 -999 -999
2007-05-04 13:36 51°19.048 3°3.774 -999 -999 -999 -999 -999
2007-05-04 13:37 51°18.936 3°3.534 -999 -999 -999 -999 -999
2007-05-04 13:38 51°18.827 3°3.293 -999 -999 -999 -999 -999
2007-05-04 13:39 51°18.725 3°3.045 -999 -999 -999 -999 -999
2007-05-04 13:40 51°18.621 3°2.801 -999 -999 -999 -999 -999
2007-05-04 13:41 51°18.518 3°2.55 -999 -999 -999 -999 -999
2007-05-04 13:42 51°18.414 3°2.301 -999 -999 -999 -999 -999
2007-05-04 13:43 51°18.308 3°2.052 -999 -999 -999 -999 -999
2007-05-04 13:44 51°18.211 3°1.796 -999 -999 -999 -999 -999
2007-05-04 13:45 51°18.118 3°1.543 -999 -999 -999 -999 -999
2007-05-04 13:46 51°18.021 3°1.288 -999 -999 -999 -999 -999
2007-05-04 13:47 51°17.919 3°1.043 -999 -999 -999 -999 -999
2007-05-04 13:48 51°17.822 3°0.792 -999 -999 -999 -999 -999
2007-05-04 13:49 51°17.721 3°0.543 -999 -999 -999 -999 -999
2007-05-04 13:50 51°17.62 3°0.29 -999 -999 -999 -999 -999
2007-05-04 13:51 51°17.517 3°0.039 -999 -999 -999 -999 -999
2007-05-04 13:52 51°17.416 2°59.783 -999 -999 -999 -999 -999
2007-05-04 13:53 51°17.317 2°59.522 -999 -999 -999 -999 -999
2007-05-04 13:54 51°17.217 2°59.26 -999 -999 -999 -999 -999
2007-05-04 13:55 51°17.116 2°58.994 -999 -999 -999 -999 -999
2007-05-04 13:56 51°17.021 2°58.724 -999 -999 -999 -999 -999
2007-05-04 13:57 51°16.923 2°58.455 -999 -999 -999 -999 -999
2007-05-04 13:58 51°16.827 2°58.18 -999 -999 -999 -999 -999
2007-05-04 13:59 51°16.731 2°57.901 -999 -999 -999 -999 -999
2007-05-04 14:00 51°16.629 2°57.634 -999 -999 -999 -999 -999
2007-05-04 14:01 51°16.523 2°57.366 -999 -999 -999 -999 -999
2007-05-04 14:02 51°16.416 2°57.102 -999 -999 -999 -999 -999
2007-05-04 14:03 51°16.301 2°56.853 -999 -999 -999 -999 -999
2007-05-04 14:04 51°16.188 2°56.594 -999 -999 -999 -999 -999
2007-05-04 14:05 51°16.071 2°56.344 -999 -999 -999 -999 -999
2007-05-04 14:06 51°15.948 2°56.105 -999 -999 -999 -999 -999
2007-05-04 14:07 51°15.822 2°55.87 -999 -999 -999 -999 -999
2007-05-04 14:08 51°15.69 2°55.642 -999 -999 -999 -999 -999
2007-05-04 14:09 51°15.535 2°55.452 -999 -999 -999 -999 -999
2007-05-04 14:10 51°15.386 2°55.27 -999 -999 -999 -999 -999
2007-05-04 14:11 51°15.232 2°55.092 -999 -999 -999 -999 -999
2007-05-04 14:12 51°15.078 2°54.929 -999 -999 -999 -999 -999
2007-05-04 14:13 51°14.904 2°54.813 -999 -999 -999 -999 -999
2007-05-04 14:14 51°14.714 2°54.722 -999 -999 -999 -999 -999
2007-05-04 14:15 51°14.528 2°54.827 -999 -999 -999 -999 -999
2007-05-04 14:16 51°14.371 2°55.058 -999 -999 -999 -999 -999
2007-05-04 14:17 51°14.233 2°55.304 -999 -999 -999 -999 -999
2007-05-04 14:18 51°14.078 2°55.455 -999 -999 -999 -999 -999
2007-05-04 14:19 51°13.943 2°55.547 -999 -999 -999 -999 -999
2007-05-04 14:20 51°13.85 2°55.617 -999 -999 -999 -999 -999
2007-05-04 14:21 51°13.776 2°55.68 -999 -999 -999 -999 -999
2007-05-04 14:22 51°13.72 2°55.76 -999 -999 -999 -999 -999
2007-05-04 14:23 51°13.675 2°55.855 -999 -999 -999 -999 -999
2007-05-04 14:24 51°13.633 2°55.951 -999 -999 -999 -999 -999
2007-05-04 14:25 51°13.615 2°56.042 -999 -999 -999 -999 -999
2007-05-04 14:26 51°13.604 2°56.091 -999 -999 -999 -999 -999
2007-05-04 14:27 51°13.6 2°56.099 -999 -999 -999 -999 -999
2007-05-04 14:28 51°13.601 2°56.102 -999 -999 -999 -999 -999